メインページ
METAR-TAF:

METAR-TAF

空港 :

インディアナポリス, インディアナ州, アメリカ合衆国

インディアナポリス国際空港

緯度: 39-43-30N, 経度: 086-16-55W, 海抜: 243m

現時点の気象観測

当レポートは44分前の00:54(UTC)に作成
北/北東の風 10kt
気温 17°C
湿度 27%
気圧 1015 hPa
視程: 16.1km
高度25000ftの雲はほとんどない

METAR: KIND 240054Z 03010KT 10SM FEW250 17/M02 A2998 RMK AO2 SLP153 T01721017 $

時間: 21:38 (01:38 UTC)

予報

当レポートは2時間12分前の23:26(UTC)に作成
予報は24日の 00時(UTC)から 25日の 06時(UTC)まで有効
北/北東の風 10kt
視程: 10km
高度25000ftの雲は散在している
24日の 1400時(UTC)から
東/北東の風 10kt
視程: 10km
晴天
24日の 2200時(UTC)から
の風 9kt
視程: 10km
高度14000ftの雲はほとんどない

TAF: KIND 232326Z 2400/2506 03010KT P6SM SCT250 FM241400 06010KT P6SM SKC FM242200 09009KT P6SM FEW140

4,000以上の空港の気象観測と天気予報(METAR報とTAF報)

利用可能な観測所は地図上に黄色い丸と赤い丸で示す。

丸の上にカーソルを重ねると観測所名を参照できる。

次にクリックすると気象観測と天気予報を参照できる。

マップの切り替え:黒色「×」印の緑ボタンをクリックして拡大、「-」印の緑ボタンをクリックして縮小、緑色の三角印をクリックして隣りの地図に切り替え


METAR-TAF: